Time;durP1;ratioP1;P1;durP2;ratioP2;P2;SDS_P1;SDS_P2;PMS_P1;PMS_P2;Temp;Humidity;BMP_temperature;BMP_pressure;BME280_temperature;BME280_humidity;BME280_pressure;Samples;Min_cycle;Max_cycle;Signal;HPM_P1;HPM_P2
2022/02/20 00:00:57;;;;;;;;;;;;;;;18.28;54.04;100838.22;2058834;28;19932;-47
2022/02/20 00:01:57;;;;;;;;;;;;;;;18.28;54.14;100835.50;2059534;28;20250;-48
2022/02/20 00:02:58;;;;;;;;;;;;;;;18.27;53.98;100845.50;2061026;28;19967;-50
2022/02/20 00:04:02;;;;;;;;;;;;;;;18.27;54.22;100840.06;2059694;28;20205;-47
2022/02/20 00:05:02;;;;;;;;;;;;;;;18.27;54.23;100841.91;2059999;28;19921;-46
2022/02/20 00:06:03;;;;;;;;;;;;;;;18.25;54.05;100839.34;2061398;28;19974;-47
2022/02/20 00:07:04;;;;;;;;;;;;;;;18.25;54.25;100838.44;2060603;28;19921;-46
2022/02/20 00:08:04;;;;;;;;;;;;;;;18.25;54.18;100839.34;2060653;28;19925;-46
2022/02/20 00:09:04;;;;;;;;;;;;;;;18.25;54.22;100838.44;2059584;28;19918;-46
2022/02/20 00:10:06;;;;;;;;;;;;;;;18.24;54.31;100837.59;2060063;28;19928;-47
2022/02/20 00:11:06;;;;;;;;;;;;;;;18.23;54.21;100838.59;2060873;28;19920;-47
2022/02/20 00:12:07;;;;;;;;;;;;;;;18.25;54.34;100843.91;2059545;28;19928;-47
2022/02/20 00:13:09;;;;;;;;;;;;;;;18.24;54.16;100843.03;2061703;28;19928;-46
2022/02/20 00:14:09;;;;;;;;;;;;;;;18.25;54.33;100850.25;2061040;28;19932;-46
2022/02/20 00:15:09;;;;;;;;;;;;;;;18.24;54.14;100845.78;2059738;28;19929;-47
2022/02/20 00:16:10;;;;;;;;;;;;;;;18.23;54.29;100846.78;2061075;28;19914;-46
2022/02/20 00:17:10;;;;;;;;;;;;;;;18.25;54.12;100847.53;2062478;28;19932;-46
2022/02/20 00:18:10;;;;;;;;;;;;;;;18.24;54.26;100848.50;2057713;28;19956;-46
2022/02/20 00:19:11;;;;;;;;;;;;;;;18.23;54.10;100846.78;2061578;28;19949;-46
2022/02/20 00:20:11;;;;;;;;;;;;;;;18.25;54.08;100849.38;2060000;28;19926;-46
2022/02/20 00:21:11;;;;;;;;;;;;;;;18.24;54.38;100848.50;2051277;28;20137;-46
2022/02/20 00:22:12;;;;;;;;;;;;;;;18.25;54.13;100844.78;2043620;28;20343;-47
2022/02/20 00:23:12;;;;;;;;;;;;;;;18.25;54.23;100844.78;2050790;28;20275;-46
2022/02/20 00:24:13;;;;;;;;;;;;;;;18.26;54.22;100851.97;2059284;28;20229;-45
2022/02/20 00:25:13;;;;;;;;;;;;;;;18.25;54.10;100858.44;2059992;28;19928;-47
2022/02/20 00:26:13;;;;;;;;;;;;;;;18.25;54.30;100855.72;2060328;28;20645;-46
2022/02/20 00:27:14;;;;;;;;;;;;;;;18.25;54.14;100855.72;2052321;28;19934;-46
2022/02/20 00:28:14;;;;;;;;;;;;;;;18.24;54.07;100851.22;2051247;28;20827;-46
2022/02/20 00:29:14;;;;;;;;;;;;;;;18.26;54.08;100859.31;2051789;28;19922;-46
2022/02/20 00:30:15;;;;;;;;;;;;;;;18.26;54.27;100845.66;2050730;28;19969;-47
2022/02/20 00:31:15;;;;;;;;;;;;;;;18.25;54.24;100847.53;2059445;28;19918;-46
2022/02/20 00:32:16;;;;;;;;;;;;;;;18.27;54.12;100852.84;2060865;28;19922;-46
2022/02/20 00:33:16;;;;;;;;;;;;;;;18.25;54.29;100852.97;2059757;28;19921;-47
2022/02/20 00:34:16;;;;;;;;;;;;;;;18.25;54.19;100844.78;2060332;28;19932;-46
2022/02/20 00:35:16;;;;;;;;;;;;;;;18.25;54.28;100849.38;2060518;28;20363;-48
2022/02/20 00:36:17;;;;;;;;;;;;;;;18.25;54.24;100850.25;2059550;28;20232;-47
2022/02/20 00:37:17;;;;;;;;;;;;;;;18.24;54.08;100848.50;2062096;28;19921;-46
2022/02/20 00:38:17;;;;;;;;;;;;;;;18.24;54.29;100851.22;2059841;28;19920;-47
2022/02/20 00:39:18;;;;;;;;;;;;;;;18.24;54.05;100853.97;2060383;28;19944;-44
2022/02/20 00:40:18;;;;;;;;;;;;;;;18.24;54.14;100848.50;2060422;28;20526;-46
2022/02/20 00:41:18;;;;;;;;;;;;;;;18.24;54.13;100853.09;2060673;28;20213;-45
2022/02/20 00:42:19;;;;;;;;;;;;;;;18.24;54.23;100844.91;2059887;28;19956;-47
2022/02/20 00:43:19;;;;;;;;;;;;;;;18.25;54.33;100855.72;2059907;28;19932;-46
2022/02/20 00:44:19;;;;;;;;;;;;;;;18.26;54.28;100851.97;2060670;28;20332;-44
2022/02/20 00:45:20;;;;;;;;;;;;;;;18.24;54.12;100853.97;2060945;28;20392;-44
2022/02/20 00:46:20;;;;;;;;;;;;;;;18.25;54.35;100850.25;2060126;28;19929;-46
2022/02/20 00:47:21;;;;;;;;;;;;;;;18.24;54.11;100847.63;2052389;28;19926;-44
2022/02/20 00:48:21;;;;;;;;;;;;;;;18.24;54.31;100843.03;2052330;28;19988;-45
2022/02/20 00:49:21;;;;;;;;;;;;;;;18.23;54.38;100838.59;2062624;28;19968;-46
2022/02/20 00:50:22;;;;;;;;;;;;;;;18.24;54.20;100850.38;2060923;28;19975;-45
2022/02/20 00:51:22;;;;;;;;;;;;;;;18.24;54.18;100844.91;2059897;28;19932;-45
2022/02/20 00:52:22;;;;;;;;;;;;;;;18.24;54.07;100845.78;2060431;28;19928;-46
2022/02/20 00:53:23;;;;;;;;;;;;;;;18.25;54.05;100843.91;2059886;28;19975;-45
2022/02/20 00:54:23;;;;;;;;;;;;;;;18.26;54.29;100851.13;2062322;28;19931;-46
2022/02/20 00:55:25;;;;;;;;;;;;;;;18.24;54.11;100848.50;2060715;28;20221;-47
2022/02/20 00:56:25;;;;;;;;;;;;;;;18.25;54.15;100852.97;2059456;28;19932;-44
2022/02/20 00:57:26;;;;;;;;;;;;;;;18.26;54.21;100845.66;2061109;28;19965;-44
2022/02/20 00:58:26;;;;;;;;;;;;;;;18.26;54.10;100851.97;2059716;28;20231;-45
2022/02/20 00:59:26;;;;;;;;;;;;;;;18.26;54.29;100846.53;2060114;28;19926;-45
2022/02/20 01:00:27;;;;;;;;;;;;;;;18.28;54.09;100854.59;2060839;28;19995;-46
2022/02/20 01:01:27;;;;;;;;;;;;;;;18.27;54.23;100847.38;2059209;28;19922;-46
2022/02/20 01:02:28;;;;;;;;;;;;;;;18.27;53.97;100850.97;2050980;28;20041;-46
2022/02/20 01:03:28;;;;;;;;;;;;;;;18.26;54.12;100849.25;2052618;28;20530;-45
2022/02/20 01:04:28;;;;;;;;;;;;;;;18.27;54.23;100848.25;2047607;28;19925;-45
2022/02/20 01:05:29;;;;;;;;;;;;;;;18.27;54.12;100850.09;2048244;28;20350;-45
2022/02/20 01:06:29;;;;;;;;;;;;;;;18.26;54.26;100851.97;2060184;28;19928;-45
2022/02/20 01:07:30;;;;;;;;;;;;;;;18.26;54.23;100846.53;2059886;28;19922;-45
2022/02/20 01:08:30;;;;;;;;;;;;;;;18.26;54.03;100851.97;2060291;28;20094;-44
2022/02/20 01:09:32;;;;;;;;;;;;;;;18.26;54.15;100851.97;2059344;28;20246;-45
2022/02/20 01:10:32;;;;;;;;;;;;;;;18.27;54.04;100853.69;2059954;28;19924;-46
2022/02/20 01:11:32;;;;;;;;;;;;;;;18.26;54.17;100854.72;2060023;28;19944;-45
2022/02/20 01:12:33;;;;;;;;;;;;;;;18.27;54.06;100848.25;2060299;28;19961;-45
2022/02/20 01:13:33;;;;;;;;;;;;;;;18.27;54.11;100848.25;2060320;28;20377;-45
2022/02/20 01:14:33;;;;;;;;;;;;;;;18.27;54.17;100848.25;2060431;28;19929;-46
2022/02/20 01:15:34;;;;;;;;;;;;;;;18.27;54.07;100852.84;2061518;28;20412;-44
2022/02/20 01:16:34;;;;;;;;;;;;;;;18.27;54.22;100853.69;2059301;28;19910;-49
2022/02/20 01:17:35;;;;;;;;;;;;;;;18.28;54.18;100854.59;2062063;28;19917;-46
2022/02/20 01:18:35;;;;;;;;;;;;;;;18.26;54.12;100857.44;2058967;28;19913;-45
2022/02/20 01:19:36;;;;;;;;;;;;;;;18.27;54.21;100852.84;2061175;28;19917;-46
2022/02/20 01:20:36;;;;;;;;;;;;;;;18.26;54.25;100862.03;2061047;28;19929;-45
2022/02/20 01:21:37;;;;;;;;;;;;;;;18.26;54.06;100856.56;2059898;28;19917;-47
2022/02/20 01:22:38;;;;;;;;;;;;;;;18.26;54.24;100862.91;2059720;28;19940;-45
2022/02/20 01:23:38;;;;;;;;;;;;;;;18.25;54.15;100863.91;2059260;28;19917;-45
2022/02/20 01:24:39;;;;;;;;;;;;;;;18.25;54.03;100861.16;2059995;28;19921;-47
2022/02/20 01:25:39;;;;;;;;;;;;;;;18.26;54.18;100862.91;2061193;28;20316;-45
2022/02/20 01:26:39;;;;;;;;;;;;;;;18.26;54.22;100862.91;2059268;28;19917;-46
2022/02/20 01:27:40;;;;;;;;;;;;;;;18.27;54.00;100863.75;2059452;28;19917;-45
2022/02/20 01:28:40;;;;;;;;;;;;;;;18.26;54.05;100860.16;2058951;28;19962;-45
2022/02/20 01:29:40;;;;;;;;;;;;;;;18.26;54.29;100862.91;2067586;28;19924;-46
2022/02/20 01:30:41;;;;;;;;;;;;;;;18.26;54.20;100868.34;2060197;28;20351;-46
2022/02/20 01:31:42;;;;;;;;;;;;;;;18.27;54.08;100864.63;2060232;28;19971;-45
2022/02/20 01:32:43;;;;;;;;;;;;;;;18.28;54.18;100866.38;2050822;28;20018;-45
2022/02/20 01:33:43;;;;;;;;;;;;;;;18.28;54.11;100870.97;2043424;28;19917;-46
2022/02/20 01:34:44;;;;;;;;;;;;;;;18.27;54.08;100864.63;2055248;28;19933;-45
2022/02/20 01:35:45;;;;;;;;;;;;;;;18.29;53.98;100868.09;2052154;28;19918;-45
2022/02/20 01:36:45;;;;;;;;;;;;;;;18.28;54.11;100866.38;2058462;28;20344;-49
2022/02/20 01:37:46;;;;;;;;;;;;;;;18.27;54.11;100859.16;2062285;28;20291;-45
2022/02/20 01:38:46;;;;;;;;;;;;;;;18.28;54.00;100863.63;2059198;28;19921;-45
2022/02/20 01:39:47;;;;;;;;;;;;;;;18.28;53.86;100857.31;2050268;28;20008;-46
2022/02/20 01:40:49;;;;;;;;;;;;;;;18.28;53.94;100858.19;2042953;28;20363;-45
2022/02/20 01:41:51;;;;;;;;;;;;;;;18.28;54.04;100855.44;2050401;28;19922;-45
2022/02/20 01:42:51;;;;;;;;;;;;;;;18.28;54.07;100860.91;2060720;28;19929;-45
2022/02/20 01:43:52;;;;;;;;;;;;;;;18.29;54.01;100856.31;2060848;28;19928;-45
2022/02/20 01:44:53;;;;;;;;;;;;;;;18.28;53.99;100860.91;2059074;28;19960;-47
2022/02/20 01:45:56;;;;;;;;;;;;;;;18.29;53.86;100850.84;2060141;28;20267;-45
2022/02/20 01:47:01;;;;;;;;;;;;;;;18.29;53.95;100859.91;2059360;28;19932;-46
2022/02/20 01:48:01;;;;;;;;;;;;;;;18.30;53.92;100861.66;2062579;28;19921;-45
2022/02/20 01:49:02;;;;;;;;;;;;;;;18.29;54.04;100850.84;2060322;28;19921;-45
2022/02/20 01:50:02;;;;;;;;;;;;;;;18.29;53.96;100857.19;2058954;28;20148;-45
2022/02/20 01:51:03;;;;;;;;;;;;;;;18.29;54.07;100849.00;2050810;28;20108;-45
2022/02/20 01:52:04;;;;;;;;;;;;;;;18.30;53.98;100853.47;2045813;28;19922;-47
2022/02/20 01:53:04;;;;;;;;;;;;;;;18.29;54.03;100850.84;2053582;28;20040;-48
2022/02/20 01:54:05;;;;;;;;;;;;;;;18.29;53.94;100845.41;2059907;28;19921;-45
2022/02/20 01:55:09;;;;;;;;;;;;;;;18.28;53.89;100852.72;2059343;28;20530;-45
2022/02/20 01:56:10;;;;;;;;;;;;;;;18.29;54.01;100842.66;2060582;28;19959;-46
2022/02/20 01:57:11;;;;;;;;;;;;;;;18.30;53.93;100848.00;2048785;28;20016;-46
2022/02/20 01:58:11;;;;;;;;;;;;;;;18.29;53.91;100846.25;2048469;28;19933;-45
2022/02/20 01:59:12;;;;;;;;;;;;;;;18.29;54.08;100846.25;2059454;28;19963;-46
2022/02/20 02:00:14;;;;;;;;;;;;;;;18.29;53.80;100848.13;2059959;28;20544;-46
2022/02/20 02:01:14;;;;;;;;;;;;;;;18.28;54.05;100850.00;2061534;28;20241;-46
2022/02/20 02:02:19;;;;;;;;;;;;;;;18.28;53.85;100843.69;2046203;28;20131;-45
2022/02/20 02:03:20;;;;;;;;;;;;;;;18.29;53.99;100843.53;2050635;28;19941;-45
2022/02/20 02:04:21;;;;;;;;;;;;;;;18.27;54.02;100837.31;2058974;28;19992;-46
2022/02/20 02:05:22;;;;;;;;;;;;;;;18.28;54.04;100841.81;2059378;28;20056;-45
2022/02/20 02:06:22;;;;;;;;;;;;;;;18.28;53.83;100839.06;2049907;28;19914;-45
2022/02/20 02:07:23;;;;;;;;;;;;;;;18.28;53.82;100844.53;2041987;28;19922;-45
2022/02/20 02:08:23;;;;;;;;;;;;;;;18.29;54.02;100849.00;2051628;28;19909;-48
2022/02/20 02:09:24;;;;;;;;;;;;;;;18.29;54.00;100845.41;2057717;28;19963;-45
2022/02/20 02:10:24;;;;;;;;;;;;;;;18.29;54.04;100845.41;2057428;28;20353;-46
2022/02/20 02:11:24;;;;;;;;;;;;;;;18.28;53.82;100855.44;2048887;28;19925;-46
2022/02/20 02:12:25;;;;;;;;;;;;;;;18.29;53.99;100856.31;2052337;28;20028;-46
2022/02/20 02:13:25;;;;;;;;;;;;;;;18.30;54.02;100853.47;2060784;28;20231;-46
2022/02/20 02:14:25;;;;;;;;;;;;;;;18.29;53.99;100846.25;2059268;28;20016;-46
2022/02/20 02:15:26;;;;;;;;;;;;;;;18.29;53.98;100857.19;2059752;28;19936;-46
2022/02/20 02:16:27;;;;;;;;;;;;;;;18.29;53.96;100845.41;2059496;28;20296;-45
2022/02/20 02:17:27;;;;;;;;;;;;;;;18.30;53.88;100853.47;2059298;28;19925;-45
2022/02/20 02:18:27;;;;;;;;;;;;;;;18.31;53.98;100855.19;2058428;28;19925;-45
2022/02/20 02:19:28;;;;;;;;;;;;;;;18.31;53.97;100848.88;2059613;28;19921;-46
2022/02/20 02:20:28;;;;;;;;;;;;;;;18.32;53.96;100845.13;2058274;28;19928;-45
2022/02/20 02:21:28;;;;;;;;;;;;;;;18.32;53.88;100845.13;2058953;28;19953;-45
2022/02/20 02:22:29;;;;;;;;;;;;;;;18.28;53.86;100844.53;2057499;28;19945;-46
2022/02/20 02:23:29;;;;;;;;;;;;;;;18.30;53.97;100848.00;2059012;28;20485;-47
2022/02/20 02:24:30;;;;;;;;;;;;;;;18.31;53.86;100849.72;2061445;28;20387;-45
2022/02/20 02:25:33;;;;;;;;;;;;;;;18.32;53.71;100851.47;2059516;28;20662;-46
2022/02/20 02:26:33;;;;;;;;;;;;;;;18.32;53.79;100850.59;2058729;28;19929;-46
2022/02/20 02:27:35;;;;;;;;;;;;;;;18.31;53.85;100849.72;2060106;28;19920;-47
2022/02/20 02:28:36;;;;;;;;;;;;;;;18.32;53.78;100851.47;2059439;28;20419;-46
2022/02/20 02:29:36;;;;;;;;;;;;;;;18.33;53.76;100855.06;2060020;28;20025;-47
2022/02/20 02:30:37;;;;;;;;;;;;;;;18.33;53.82;100857.81;2059400;28;20056;-45
2022/02/20 02:31:37;;;;;;;;;;;;;;;18.32;53.87;100862.38;2058868;28;19917;-46
2022/02/20 02:32:37;;;;;;;;;;;;;;;18.32;53.83;100856.91;2053071;28;19922;-46
2022/02/20 02:33:38;;;;;;;;;;;;;;;18.32;53.77;100861.50;2052377;28;20325;-45
2022/02/20 02:34:42;;;;;;;;;;;;;;;18.32;53.82;100856.91;2058517;28;20039;-45
2022/02/20 02:35:42;;;;;;;;;;;;;;;18.34;53.87;100862.25;2047941;28;20022;-46
2022/02/20 02:36:46;;;;;;;;;;;;;;;18.32;53.89;100862.38;2050074;28;19914;-46
2022/02/20 02:37:46;;;;;;;;;;;;;;;18.33;53.80;100863.25;2051619;28;20048;-45
2022/02/20 02:38:47;;;;;;;;;;;;;;;18.33;53.64;100861.41;2048962;28;19921;-47
2022/02/20 02:39:48;;;;;;;;;;;;;;;18.33;53.81;100855.94;2059342;28;19960;-46
2022/02/20 02:40:48;;;;;;;;;;;;;;;18.29;53.70;100857.19;2058681;28;19921;-46
2022/02/20 02:41:49;;;;;;;;;;;;;;;18.32;53.82;100856.06;2058192;28;19936;-47
2022/02/20 02:42:49;;;;;;;;;;;;;;;18.32;53.79;100851.47;2057476;28;19922;-45
2022/02/20 02:43:51;;;;;;;;;;;;;;;18.32;53.83;100851.47;2060828;28;19964;-45
2022/02/20 02:44:51;;;;;;;;;;;;;;;18.32;53.80;100856.91;2058735;28;20259;-47
2022/02/20 02:45:52;;;;;;;;;;;;;;;18.31;53.61;100849.72;2058402;28;19974;-44
2022/02/20 02:46:52;;;;;;;;;;;;;;;18.31;53.79;100852.47;2051750;28;19925;-44
2022/02/20 02:47:53;;;;;;;;;;;;;;;18.31;53.80;100849.72;2046619;28;19932;-45
2022/02/20 02:48:53;;;;;;;;;;;;;;;18.32;53.78;100851.47;2059483;28;19914;-44
2022/02/20 02:49:53;;;;;;;;;;;;;;;18.32;53.74;100851.47;2060749;28;19967;-47
2022/02/20 02:50:54;;;;;;;;;;;;;;;18.31;53.75;100849.72;2059569;28;20241;-45
2022/02/20 02:51:54;;;;;;;;;;;;;;;18.34;53.78;100843.16;2058080;28;20240;-45
2022/02/20 02:52:55;;;;;;;;;;;;;;;18.33;53.80;100841.44;2058976;28;20196;-47
2022/02/20 02:53:56;;;;;;;;;;;;;;;18.32;53.81;100845.13;2060001;28;19921;-45
2022/02/20 02:54:56;;;;;;;;;;;;;;;18.32;53.83;100845.13;2059203;28;20721;-44
2022/02/20 02:55:56;;;;;;;;;;;;;;;18.31;53.79;100838.81;2060367;28;19917;-45
2022/02/20 02:56:57;;;;;;;;;;;;;;;18.31;53.85;100844.28;2058597;28;19987;-45
2022/02/20 02:57:57;;;;;;;;;;;;;;;18.31;53.66;100844.28;2059860;28;19922;-45
2022/02/20 02:58:58;;;;;;;;;;;;;;;18.33;53.57;100846.88;2050127;28;19949;-46
2022/02/20 02:59:58;;;;;;;;;;;;;;;18.32;53.53;100854.19;2048782;28;20321;-48
2022/02/20 03:00:58;;;;;;;;;;;;;;;18.33;53.73;100844.16;2059403;28;19923;-46
2022/02/20 03:02:03;;;;;;;;;;;;;;;18.33;53.61;100845.03;2057911;28;19921;-45
2022/02/20 03:03:03;;;;;;;;;;;;;;;18.33;53.79;100845.03;2062883;28;19917;-46
2022/02/20 03:04:03;;;;;;;;;;;;;;;18.34;53.75;100844.00;2058962;28;19952;-45
2022/02/20 03:05:04;;;;;;;;;;;;;;;18.32;53.73;100843.28;2061716;28;20343;-47
2022/02/20 03:06:11;;;;;;;;;;;;;;;18.33;53.65;100842.28;2058839;28;19921;-44
2022/02/20 03:07:13;;;;;;;;;;;;;;;18.32;53.72;100840.53;2058180;28;19928;-49
2022/02/20 03:08:14;;;;;;;;;;;;;;;18.34;53.72;100838.56;2061746;28;20351;-45
2022/02/20 03:09:14;;;;;;;;;;;;;;;18.34;53.57;100844.00;2057922;28;19917;-45
2022/02/20 03:10:15;;;;;;;;;;;;;;;18.34;53.64;100844.00;2057286;28;19917;-45
2022/02/20 03:11:16;;;;;;;;;;;;;;;18.34;53.69;100846.75;2061524;28;19918;-45
2022/02/20 03:12:17;;;;;;;;;;;;;;;18.34;53.62;100846.75;2059378;28;19926;-45
2022/02/20 03:13:17;;;;;;;;;;;;;;;18.34;53.54;100849.47;2057840;28;19937;-45
2022/02/20 03:14:18;;;;;;;;;;;;;;;18.34;53.69;100844.00;2059399;28;20240;-46
2022/02/20 03:15:19;;;;;;;;;;;;;;;18.35;53.64;100850.38;2060333;28;20344;-47
2022/02/20 03:16:19;;;;;;;;;;;;;;;18.34;53.64;100844.00;2060206;28;19925;-46
2022/02/20 03:17:20;;;;;;;;;;;;;;;18.34;53.48;100841.28;2056585;28;19957;-45
2022/02/20 03:18:20;;;;;;;;;;;;;;;18.36;53.52;100843.91;2059617;28;19929;-46
2022/02/20 03:19:21;;;;;;;;;;;;;;;18.35;53.43;100842.19;2057236;28;19929;-46
2022/02/20 03:20:21;;;;;;;;;;;;;;;18.35;53.44;100848.50;2062135;28;19944;-47
2022/02/20 03:21:22;;;;;;;;;;;;;;;18.34;53.52;100841.28;2048600;28;20446;-47
2022/02/20 03:22:22;;;;;;;;;;;;;;;18.35;53.44;100842.19;2052178;28;19925;-46
2022/02/20 03:23:23;;;;;;;;;;;;;;;18.34;53.54;100846.75;2057280;28;19920;-45
2022/02/20 03:24:23;;;;;;;;;;;;;;;18.33;53.63;100846.88;2059159;28;20052;-47
2022/02/20 03:25:23;;;;;;;;;;;;;;;18.32;53.49;100846.00;2049736;28;19928;-46
2022/02/20 03:26:24;;;;;;;;;;;;;;;18.33;53.53;100846.88;2049776;28;20319;-46
2022/02/20 03:27:24;;;;;;;;;;;;;;;18.33;53.42;100847.75;2059244;28;19929;-46
2022/02/20 03:28:24;;;;;;;;;;;;;;;18.35;53.62;100847.63;2060297;28;20478;-46
2022/02/20 03:29:24;;;;;;;;;;;;;;;18.35;53.56;100847.63;2057853;28;19920;-46
2022/02/20 03:30:25;;;;;;;;;;;;;;;18.34;53.45;100849.47;2052034;28;20757;-46
2022/02/20 03:31:25;;;;;;;;;;;;;;;18.34;53.50;100843.16;2048419;28;20328;-46
2022/02/20 03:32:26;;;;;;;;;;;;;;;18.34;53.55;100844.00;2057970;28;20674;-47
2022/02/20 03:33:26;;;;;;;;;;;;;;;18.34;53.66;100845.88;2058950;28;19975;-47
2022/02/20 03:34:26;;;;;;;;;;;;;;;18.34;53.62;100838.56;2050683;28;19925;-46
2022/02/20 03:35:27;;;;;;;;;;;;;;;18.34;53.49;100844.00;2051964;28;20326;-47
2022/02/20 03:36:27;;;;;;;;;;;;;;;18.35;53.53;100840.31;2058044;28;19921;-46
2022/02/20 03:37:27;;;;;;;;;;;;;;;18.35;53.61;100840.31;2048953;28;20209;-47
2022/02/20 03:38:28;;;;;;;;;;;;;;;18.36;53.55;100846.63;2050475;28;19944;-46
2022/02/20 03:39:28;;;;;;;;;;;;;;;18.35;53.61;100840.31;2059184;28;19913;-47
2022/02/20 03:40:28;;;;;;;;;;;;;;;18.36;53.43;100849.34;2058580;28;19913;-46
2022/02/20 03:41:28;;;;;;;;;;;;;;;18.35;53.45;100848.50;2059370;28;19929;-47
2022/02/20 03:42:29;;;;;;;;;;;;;;;18.34;53.46;100845.88;2058551;28;20180;-47
2022/02/20 03:43:29;;;;;;;;;;;;;;;18.36;53.53;100847.50;2058366;28;20234;-48
2022/02/20 03:44:29;;;;;;;;;;;;;;;18.36;53.59;100849.34;2059091;28;19920;-47
2022/02/20 03:45:30;;;;;;;;;;;;;;;18.37;53.59;100848.34;2058952;28;20237;-48
2022/02/20 03:46:31;;;;;;;;;;;;;;;18.36;53.53;100850.22;2055449;28;19917;-46
2022/02/20 03:47:31;;;;;;;;;;;;;;;18.36;53.44;100839.31;2060299;28;20247;-46
2022/02/20 03:48:32;;;;;;;;;;;;;;;18.37;53.48;100851.97;2057439;28;19928;-45
2022/02/20 03:49:32;;;;;;;;;;;;;;;18.36;53.54;100844.75;2056530;28;19961;-47
2022/02/20 03:50:33;;;;;;;;;;;;;;;18.36;53.47;100839.31;2057432;28;20201;-47
2022/02/20 03:51:33;;;;;;;;;;;;;;;18.37;53.40;100843.78;2057268;28;19922;-46
2022/02/20 03:52:34;;;;;;;;;;;;;;;18.36;53.53;100839.31;2058392;28;19914;-48
2022/02/20 03:53:34;;;;;;;;;;;;;;;18.38;53.35;100837.31;2058461;28;19991;-46
2022/02/20 03:54:35;;;;;;;;;;;;;;;18.38;53.50;100842.78;2059152;28;19925;-47
2022/02/20 03:55:35;;;;;;;;;;;;;;;18.37;53.41;100841.06;2059258;28;19932;-46
2022/02/20 03:56:35;;;;;;;;;;;;;;;18.37;53.45;100843.78;2059272;28;19933;-46
2022/02/20 03:57:36;;;;;;;;;;;;;;;18.37;53.48;100843.78;2058135;28;19922;-46
2022/02/20 03:58:37;;;;;;;;;;;;;;;18.37;53.50;100843.78;2058497;28;20271;-46
2022/02/20 03:59:37;;;;;;;;;;;;;;;18.37;53.34;100841.06;2059418;28;19964;-47
2022/02/20 04:00:38;;;;;;;;;;;;;;;18.37;53.49;100840.16;2059370;28;19921;-47
2022/02/20 04:01:38;;;;;;;;;;;;;;;18.36;53.51;100839.31;2061103;28;19921;-46
2022/02/20 04:02:39;;;;;;;;;;;;;;;18.36;53.36;100844.75;2057879;28;20020;-47
2022/02/20 04:03:41;;;;;;;;;;;;;;;18.37;53.52;100838.31;2050004;28;20020;-47
2022/02/20 04:04:42;;;;;;;;;;;;;;;18.39;53.31;100838.19;2050592;28;20087;-48
2022/02/20 04:05:42;;;;;;;;;;;;;;;18.37;53.40;100838.31;2058315;28;19977;-46
2022/02/20 04:06:42;;;;;;;;;;;;;;;18.37;53.27;100838.31;2050426;28;19921;-45
2022/02/20 04:07:43;;;;;;;;;;;;;;;18.37;53.33;100840.16;2050293;28;19921;-47
2022/02/20 04:08:44;;;;;;;;;;;;;;;18.36;53.22;100836.56;2058919;28;19986;-47
2022/02/20 04:09:44;;;;;;;;;;;;;;;18.34;53.30;100838.56;2056100;28;19921;-47
2022/02/20 04:10:45;;;;;;;;;;;;;;;18.36;53.14;100836.56;2051652;28;19914;-46
2022/02/20 04:11:45;;;;;;;;;;;;;;;18.36;53.36;100842.03;2048922;28;19914;-47
2022/02/20 04:12:46;;;;;;;;;;;;;;;18.36;53.29;100839.31;2059283;28;19913;-46
2022/02/20 04:13:46;;;;;;;;;;;;;;;18.36;53.45;100842.03;2060199;28;20214;-50
2022/02/20 04:14:47;;;;;;;;;;;;;;;18.36;53.23;100843.91;2054641;28;19974;-46
2022/02/20 04:15:47;;;;;;;;;;;;;;;18.37;53.42;100841.06;2061422;28;19922;-47
2022/02/20 04:16:47;;;;;;;;;;;;;;;18.36;53.38;100842.03;2056372;28;19922;-48
2022/02/20 04:17:48;;;;;;;;;;;;;;;18.37;53.24;100843.78;2057764;28;20539;-47
2022/02/20 04:18:49;;;;;;;;;;;;;;;18.37;53.36;100843.78;2056315;28;19913;-48
2022/02/20 04:19:49;;;;;;;;;;;;;;;18.38;53.38;100842.78;2058183;28;19928;-46
2022/02/20 04:20:50;;;;;;;;;;;;;;;18.37;53.32;100843.78;2059640;28;19921;-46
2022/02/20 04:21:50;;;;;;;;;;;;;;;18.37;53.32;100843.78;2048906;28;19925;-47
2022/02/20 04:22:50;;;;;;;;;;;;;;;18.38;53.35;100847.38;2049314;28;20217;-46
2022/02/20 04:23:51;;;;;;;;;;;;;;;18.37;53.31;100854.69;2059213;28;19972;-46
2022/02/20 04:24:51;;;;;;;;;;;;;;;18.37;53.25;100846.50;2058868;28;19921;-45
2022/02/20 04:25:51;;;;;;;;;;;;;;;18.37;53.31;100843.78;2058015;28;19928;-47
2022/02/20 04:26:52;;;;;;;;;;;;;;;18.38;53.20;100844.66;2054347;28;19967;-46
2022/02/20 04:27:52;;;;;;;;;;;;;;;18.37;53.35;100854.69;2058888;28;19929;-46
2022/02/20 04:28:52;;;;;;;;;;;;;;;18.38;53.23;100845.50;2059158;28;20323;-47
2022/02/20 04:29:52;;;;;;;;;;;;;;;18.37;53.19;100837.44;2058657;28;19920;-45
2022/02/20 04:30:53;;;;;;;;;;;;;;;18.38;53.29;100845.50;2059117;28;19913;-46
2022/02/20 04:31:53;;;;;;;;;;;;;;;18.39;53.22;100849.09;2058227;28;19922;-46
2022/02/20 04:32:54;;;;;;;;;;;;;;;18.39;53.26;100846.38;2058684;28;19913;-47
2022/02/20 04:33:57;;;;;;;;;;;;;;;18.39;53.17;100849.97;2055967;28;19960;-46
2022/02/20 04:34:57;;;;;;;;;;;;;;;18.37;53.29;100849.25;2053474;28;19936;-46
2022/02/20 04:35:57;;;;;;;;;;;;;;;18.39;53.29;100852.69;2059715;28;19980;-46
2022/02/20 04:36:58;;;;;;;;;;;;;;;18.39;53.26;100858.16;2060514;28;19992;-47
2022/02/20 04:37:58;;;;;;;;;;;;;;;18.39;53.33;100863.59;2057090;28;19922;-46
2022/02/20 04:38:59;;;;;;;;;;;;;;;18.39;53.31;100852.69;2058637;28;19925;-47
2022/02/20 04:40:00;;;;;;;;;;;;;;;18.39;53.27;100852.69;2060627;28;19945;-47
2022/02/20 04:41:00;;;;;;;;;;;;;;;18.40;53.16;100859.03;2058150;28;19944;-47
2022/02/20 04:42:01;;;;;;;;;;;;;;;18.39;53.25;100863.59;2061289;28;20611;-46
2022/02/20 04:43:01;;;;;;;;;;;;;;;18.39;53.26;100858.16;2057602;28;19929;-47
2022/02/20 04:44:02;;;;;;;;;;;;;;;18.38;53.16;100859.16;2061155;28;20163;-47
2022/02/20 04:45:02;;;;;;;;;;;;;;;18.37;53.31;100851.97;2059916;28;19976;-47
2022/02/20 04:46:03;;;;;;;;;;;;;;;18.38;53.11;100859.16;2060649;28;19968;-46
2022/02/20 04:47:03;;;;;;;;;;;;;;;18.37;53.37;100849.25;2060293;28;19922;-48
2022/02/20 04:48:04;;;;;;;;;;;;;;;18.38;53.26;100855.56;2060441;28;20359;-47
2022/02/20 04:49:05;;;;;;;;;;;;;;;18.38;53.27;100856.41;2060301;28;19928;-47
2022/02/20 04:50:06;;;;;;;;;;;;;;;18.39;53.14;100860.00;2060489;28;19921;-46
2022/02/20 04:51:06;;;;;;;;;;;;;;;18.38;53.11;100850.97;2060680;28;20272;-46
2022/02/20 04:52:06;;;;;;;;;;;;;;;18.38;53.32;100852.84;2060038;28;20260;-46
2022/02/20 04:53:07;;;;;;;;;;;;;;;18.38;53.24;100850.09;2059719;28;19921;-47
2022/02/20 04:54:07;;;;;;;;;;;;;;;18.37;53.13;100854.69;2060068;28;19921;-48
2022/02/20 04:55:08;;;;;;;;;;;;;;;18.37;53.23;100849.25;2050769;28;20376;-48
2022/02/20 04:56:09;;;;;;;;;;;;;;;18.37;53.11;100845.63;2052802;28;19921;-47
2022/02/20 04:57:09;;;;;;;;;;;;;;;18.37;53.29;100842.88;2059854;28;19944;-46
2022/02/20 04:58:10;;;;;;;;;;;;;;;18.37;53.20;100838.31;2052530;28;19921;-47
2022/02/20 04:59:11;;;;;;;;;;;;;;;18.36;53.19;100836.56;2051021;28;19922;-46
2022/02/20 05:00:11;;;;;;;;;;;;;;;18.37;53.04;100824.69;2056406;28;19913;-47
2022/02/20 05:01:12;;;;;;;;;;;;;;;18.36;53.16;100831.13;2060800;28;19928;-46
2022/02/20 05:02:12;;;;;;;;;;;;;;;18.37;53.16;100816.50;2059941;28;19925;-46
2022/02/20 05:03:12;;;;;;;;;;;;;;;18.37;53.17;100816.50;2059673;28;19984;-46
2022/02/20 05:04:13;;;;;;;;;;;;;;;18.37;53.15;100811.03;2058823;28;19984;-46
2022/02/20 05:05:13;;;;;;;;;;;;;;;18.36;53.30;100812.00;2059209;28;20299;-45
2022/02/20 05:06:14;;;;;;;;;;;;;;;18.36;53.29;100811.16;2049598;28;19929;-47
2022/02/20 05:07:15;;;;;;;;;;;;;;;18.37;53.29;100804.69;2051885;28;20355;-47
2022/02/20 05:08:15;;;;;;;;;;;;;;;18.37;53.11;100802.84;2060646;28;19971;-47
2022/02/20 05:09:15;;;;;;;;;;;;;;;18.38;53.21;100801.84;2060500;28;19921;-46
2022/02/20 05:10:16;;;;;;;;;;;;;;;18.38;53.11;100799.09;2060110;28;20348;-46
2022/02/20 05:11:16;;;;;;;;;;;;;;;18.39;53.18;100798.09;2061682;28;19969;-48